JFA1629 SBPB-SBMS
Flight info
| Callsign | JFA1629 |
|---|---|
| Flight time | N/A |
| Altitude | 29000 |
| Route | MAKMI DCT OSITI DCT UTMAR |
| Aircraft | TBM9/L-SDFGRWY/S |
Departure
| Time | 2026-05-05 21:51 |
|---|---|
| Airport | Parnaíba - Prefeito Doutor João Silva Filho International Airport (SBPB) |
Arrival
| Time | N/A |
|---|---|
| Airport | Dix-Sept Rosado Airport (SBMS) |
| Time | Latitude | Longitude | Altitude | Speed | Heading |
|---|---|---|---|---|---|
| 2026-05-05 21:23 | -2.89463 | -41.73025 | 17 ft | 0 kts | 45° |
| 2026-05-05 21:44 | -2.89463 | -41.73024 | 17 ft | 0 kts | 45° |
| 2026-05-05 21:44 | -2.89450 | -41.73015 | 17 ft | 5 kts | 30° |
| 2026-05-05 21:44 | -2.89418 | -41.72975 | 17 ft | 10 kts | 76° |
| 2026-05-05 21:45 | -2.89459 | -41.72965 | 17 ft | 8 kts | 251° |
| 2026-05-05 21:45 | -2.89474 | -41.73024 | 17 ft | 9 kts | 255° |
| 2026-05-05 21:45 | -2.89443 | -41.73061 | 18 ft | 9 kts | 343° |
| 2026-05-05 21:45 | -2.89426 | -41.73066 | 18 ft | 0 kts | 343° |
| 2026-05-05 21:47 | -2.89391 | -41.73076 | 18 ft | 9 kts | 344° |
| 2026-05-05 21:48 | -2.89362 | -41.73139 | 18 ft | 15 kts | 253° |
| 2026-05-05 21:48 | -2.89396 | -41.73256 | 18 ft | 20 kts | 253° |
| 2026-05-05 21:48 | -2.89441 | -41.73409 | 19 ft | 25 kts | 253° |
| 2026-05-05 21:48 | -2.89495 | -41.73590 | 20 ft | 29 kts | 253° |
| 2026-05-05 21:49 | -2.89553 | -41.73790 | 20 ft | 31 kts | 253° |
| 2026-05-05 21:49 | -2.89599 | -41.73942 | 18 ft | 19 kts | 255° |
| 2026-05-05 21:49 | -2.89646 | -41.74042 | 17 ft | 14 kts | 219° |
| 2026-05-05 21:49 | -2.89631 | -41.74058 | 17 ft | 12 kts | 83° |
| 2026-05-05 21:50 | -2.89629 | -41.74044 | 17 ft | 2 kts | 73° |
| 2026-05-05 21:50 | -2.89625 | -41.74032 | 17 ft | 0 kts | 71° |
| 2026-05-05 21:50 | -2.89593 | -41.73927 | 19 ft | 43 kts | 75° |
| 2026-05-05 21:50 | -2.89457 | -41.73462 | 20 ft | 97 kts | 73° |
| 2026-05-05 21:51 | -2.89255 | -41.72742 | 303 ft | 110 kts | 75° |
| 2026-05-05 21:51 | -2.89033 | -41.71978 | 642 ft | 120 kts | 70° |
| 2026-05-05 21:51 | -2.88781 | -41.71211 | 1194 ft | 106 kts | 70° |
| 2026-05-05 21:51 | -2.88601 | -41.70456 | 1584 ft | 111 kts | 79° |
| 2026-05-05 21:52 | -2.89466 | -41.69272 | 2285 ft | 133 kts | 159° |
| 2026-05-05 21:52 | -2.90249 | -41.68821 | 2779 ft | 127 kts | 138° |
| 2026-05-05 21:52 | -2.90778 | -41.68139 | 3261 ft | 124 kts | 118° |
| 2026-05-05 21:53 | -2.91182 | -41.67378 | 3704 ft | 123 kts | 119° |
| 2026-05-05 21:53 | -2.91564 | -41.66622 | 4136 ft | 123 kts | 118° |
| 2026-05-05 21:53 | -2.91939 | -41.65856 | 4593 ft | 122 kts | 118° |
| 2026-05-05 21:53 | -2.92315 | -41.65080 | 5044 ft | 122 kts | 119° |
| 2026-05-05 21:54 | -2.92680 | -41.64323 | 5479 ft | 123 kts | 120° |
| 2026-05-05 21:54 | -2.93051 | -41.63553 | 5946 ft | 123 kts | 119° |
| 2026-05-05 21:54 | -2.93420 | -41.62783 | 6430 ft | 123 kts | 119° |
| 2026-05-05 21:54 | -2.93792 | -41.62011 | 6857 ft | 124 kts | 118° |
| 2026-05-05 21:55 | -2.94170 | -41.61229 | 7272 ft | 125 kts | 118° |
| 2026-05-05 21:55 | -2.94542 | -41.60459 | 7413 ft | 130 kts | 117° |
| 2026-05-05 21:55 | -2.94924 | -41.59654 | 7916 ft | 126 kts | 117° |